createdAt,value
2023-03-29T00:00:31.579Z,77.11
2023-03-29T00:02:58.302Z,76.97
2023-03-29T00:05:25.630Z,77.12
2023-03-29T00:08:01.918Z,77.54
2023-03-29T00:10:28.625Z,77.17
2023-03-29T00:12:55.020Z,77.17
2023-03-29T00:15:21.878Z,76.95
2023-03-29T00:17:48.383Z,76.93
2023-03-29T00:20:14.949Z,76.79
2023-03-29T00:22:42.338Z,76.55
2023-03-29T00:25:08.914Z,76.25
2023-03-29T00:27:35.528Z,77.13
2023-03-29T00:30:04.317Z,77.02
2023-03-29T00:32:30.814Z,76.92
2023-03-29T00:34:57.281Z,76.48
2023-03-29T00:37:26.937Z,76.75
2023-03-29T00:39:53.444Z,77.10
2023-03-29T00:42:20.408Z,77.22
2023-03-29T00:44:46.819Z,76.81
2023-03-29T00:47:13.227Z,77.16
2023-03-29T00:49:39.644Z,77.86
2023-03-29T00:52:06.054Z,77.60
2023-03-29T00:54:33.101Z,77.43
2023-03-29T00:57:04.154Z,76.91
2023-03-29T00:59:32.954Z,77.53
2023-03-29T01:02:00.078Z,77.43
2023-03-29T01:04:29.647Z,77.17
2023-03-29T01:06:56.149Z,78.21
2023-03-29T01:09:22.713Z,77.74
2023-03-29T01:11:49.148Z,77.56
2023-03-29T01:14:15.737Z,77.69
2023-03-29T01:16:42.680Z,77.59
2023-03-29T01:19:09.116Z,76.93
2023-03-29T01:21:36.476Z,77.10
2023-03-29T01:24:07.284Z,77.15
2023-03-29T01:26:33.869Z,77.37
2023-03-29T01:29:00.360Z,77.00
2023-03-29T01:31:26.807Z,77.10
2023-03-29T01:33:53.293Z,76.81
2023-03-29T01:36:19.789Z,76.88
2023-03-29T01:38:46.270Z,76.87
2023-03-29T01:41:12.748Z,77.36
2023-03-29T01:43:39.260Z,77.30
2023-03-29T01:46:05.952Z,77.53
2023-03-29T01:48:32.505Z,78.27
2023-03-29T01:51:00.191Z,78.40
2023-03-29T01:53:27.371Z,79.10
2023-03-29T01:55:53.849Z,78.72
2023-03-29T01:58:20.270Z,78.53
2023-03-29T02:00:46.717Z,78.20
2023-03-29T02:03:15.134Z,79.57
2023-03-29T02:05:42.572Z,79.38
2023-03-29T02:08:09.074Z,79.29
2023-03-29T02:10:35.510Z,79.19
2023-03-29T02:13:02.105Z,79.38
2023-03-29T02:15:28.570Z,79.26
2023-03-29T02:17:57.033Z,79.23
2023-03-29T02:20:23.701Z,78.41
2023-03-29T02:22:50.390Z,77.99
2023-03-29T02:25:17.686Z,78.56
2023-03-29T02:27:44.113Z,78.31
2023-03-29T02:30:11.167Z,77.66
2023-03-29T02:32:37.635Z,77.19
2023-03-29T02:35:04.705Z,77.49
2023-03-29T02:37:31.129Z,77.31
2023-03-29T02:39:58.007Z,77.37
2023-03-29T02:42:24.472Z,76.86
2023-03-29T02:44:51.100Z,77.07
2023-03-29T02:47:17.504Z,76.47
2023-03-29T02:49:43.914Z,77.87
2023-03-29T02:52:10.555Z,76.99
2023-03-29T02:54:38.146Z,76.83
2023-03-29T02:57:06.561Z,76.28
2023-03-29T02:59:33.567Z,76.76
2023-03-29T03:02:00.194Z,76.50
2023-03-29T03:04:26.731Z,76.06
2023-03-29T03:06:53.169Z,76.11
2023-03-29T03:09:19.896Z,76.33
2023-03-29T03:11:46.392Z,76.46
2023-03-29T03:14:12.835Z,76.19
2023-03-29T03:16:39.319Z,76.19
2023-03-29T03:19:05.810Z,76.12
2023-03-29T03:21:32.309Z,75.75
2023-03-29T03:23:58.757Z,75.82
2023-03-29T03:26:25.219Z,75.77
2023-03-29T03:28:51.651Z,75.65
2023-03-29T03:31:18.122Z,75.60
2023-03-29T03:33:44.939Z,75.65
2023-03-29T03:36:11.465Z,75.53
2023-03-29T03:38:38.003Z,75.10
2023-03-29T03:41:04.914Z,75.92
2023-03-29T03:43:31.700Z,76.09
2023-03-29T03:45:58.230Z,76.18
2023-03-29T03:48:24.783Z,75.88
2023-03-29T03:50:51.209Z,76.09
2023-03-29T03:53:18.256Z,76.04
2023-03-29T03:55:44.831Z,76.78
2023-03-29T03:58:11.398Z,76.31
2023-03-29T04:00:37.899Z,76.18
2023-03-29T04:03:06.344Z,75.95
2023-03-29T04:05:32.933Z,76.03
2023-03-29T04:07:59.381Z,75.94
2023-03-29T04:10:25.813Z,76.14
2023-03-29T04:12:52.231Z,75.77
2023-03-29T04:15:20.430Z,76.20
2023-03-29T04:17:46.897Z,75.94
2023-03-29T04:20:13.706Z,75.49
2023-03-29T04:22:40.162Z,75.79
2023-03-29T04:25:06.706Z,75.92
2023-03-29T04:27:33.168Z,76.08
2023-03-29T04:29:59.632Z,76.37
2023-03-29T04:32:26.164Z,76.04
2023-03-29T04:34:52.663Z,75.54
2023-03-29T04:37:22.167Z,75.81
2023-03-29T04:39:48.573Z,75.56
2023-03-29T04:42:15.002Z,75.47
2023-03-29T04:44:43.804Z,75.25
2023-03-29T04:47:13.143Z,75.00
2023-03-29T04:49:39.583Z,75.27
2023-03-29T04:52:06.165Z,75.16
2023-03-29T04:54:32.658Z,74.93
2023-03-29T04:56:59.124Z,74.29
2023-03-29T04:59:25.644Z,73.98
2023-03-29T05:01:52.572Z,73.74
2023-03-29T05:04:19.126Z,74.01
2023-03-29T05:06:45.717Z,73.67
2023-03-29T05:09:12.128Z,73.43
2023-03-29T05:11:38.579Z,73.01
2023-03-29T05:14:07.480Z,73.09
2023-03-29T05:16:34.767Z,72.28
2023-03-29T05:19:01.337Z,71.91
2023-03-29T05:21:28.621Z,72.01
2023-03-29T05:23:55.101Z,72.96
2023-03-29T05:26:22.322Z,72.91
2023-03-29T05:28:48.801Z,71.59
2023-03-29T05:31:16.969Z,71.08
2023-03-29T05:33:43.716Z,71.05
2023-03-29T05:36:11.237Z,70.95
2023-03-29T05:38:38.392Z,70.70
2023-03-29T05:41:06.436Z,70.29
2023-03-29T05:43:32.926Z,70.04
2023-03-29T05:45:59.399Z,70.01
2023-03-29T05:48:25.999Z,69.64
2023-03-29T05:50:52.533Z,69.69
2023-03-29T05:53:18.961Z,69.77
2023-03-29T05:55:45.608Z,69.86
2023-03-29T05:58:13.157Z,69.49
2023-03-29T06:00:39.614Z,70.06
2023-03-29T06:03:14.124Z,69.49
2023-03-29T06:05:49.676Z,69.92
2023-03-29T06:08:16.342Z,69.33
2023-03-29T06:10:42.986Z,69.32
2023-03-29T06:13:09.444Z,69.20
2023-03-29T06:15:35.850Z,69.71
2023-03-29T06:18:02.578Z,69.67
2023-03-29T06:20:29.028Z,69.47
2023-03-29T06:22:55.458Z,68.89
2023-03-29T06:25:21.904Z,68.97
2023-03-29T06:27:48.355Z,69.04
2023-03-29T06:30:15.687Z,68.91
2023-03-29T06:32:42.269Z,68.64
2023-03-29T06:35:08.685Z,68.42
2023-03-29T06:37:35.157Z,68.44
2023-03-29T06:40:01.648Z,68.37
2023-03-29T06:42:28.715Z,68.22
2023-03-29T06:44:55.136Z,68.27
2023-03-29T06:47:22.601Z,68.24
2023-03-29T06:49:49.039Z,68.20
2023-03-29T06:52:16.013Z,67.66
2023-03-29T06:54:42.525Z,67.66
2023-03-29T06:57:09.085Z,67.56
2023-03-29T06:59:35.865Z,68.07
2023-03-29T07:02:03.005Z,68.32
2023-03-29T07:04:29.990Z,67.59
2023-03-29T07:07:03.630Z,67.55
2023-03-29T07:09:30.251Z,67.77
2023-03-29T07:11:57.165Z,67.16
2023-03-29T07:14:23.625Z,66.88
2023-03-29T07:16:52.148Z,67.31
2023-03-29T07:19:19.917Z,67.24
2023-03-29T07:21:46.628Z,66.93
2023-03-29T07:24:13.157Z,67.12
2023-03-29T07:26:46.335Z,67.02
2023-03-29T07:29:19.140Z,67.15
2023-03-29T07:31:46.271Z,68.12
2023-03-29T07:34:12.817Z,67.22
2023-03-29T07:36:39.217Z,67.07
2023-03-29T07:39:05.701Z,67.23
2023-03-29T07:41:32.178Z,67.78
2023-03-29T07:43:59.217Z,67.83
2023-03-29T07:46:25.695Z,67.43
2023-03-29T07:48:52.341Z,67.35
2023-03-29T07:51:18.821Z,68.98
2023-03-29T07:53:45.229Z,68.84
2023-03-29T07:56:11.662Z,68.92
2023-03-29T07:58:38.094Z,69.64
2023-03-29T08:01:04.670Z,69.65
2023-03-29T08:03:31.746Z,71.03
2023-03-29T08:05:58.260Z,70.81
2023-03-29T08:08:24.763Z,70.77
2023-03-29T08:10:52.146Z,71.81
2023-03-29T08:13:18.573Z,71.76
2023-03-29T08:15:47.557Z,72.15
2023-03-29T08:18:14.207Z,73.81
2023-03-29T08:20:40.719Z,72.52
2023-03-29T08:23:07.279Z,72.72
2023-03-29T08:25:33.720Z,72.74
2023-03-29T08:28:00.219Z,72.97
2023-03-29T08:30:27.261Z,73.65
2023-03-29T08:32:55.393Z,72.51
2023-03-29T08:35:22.004Z,72.10
2023-03-29T08:37:48.449Z,72.58
2023-03-29T08:40:15.096Z,71.56
2023-03-29T08:42:42.015Z,71.27
2023-03-29T08:45:08.420Z,72.31
2023-03-29T08:47:35.347Z,71.78
2023-03-29T08:50:01.825Z,71.59
2023-03-29T08:52:28.259Z,71.10
2023-03-29T08:54:54.860Z,71.75
2023-03-29T08:57:21.321Z,70.78
2023-03-29T08:59:47.838Z,70.87
2023-03-29T09:02:14.306Z,70.19
2023-03-29T09:04:40.765Z,70.35
2023-03-29T09:07:07.181Z,70.80
2023-03-29T09:09:33.719Z,70.50
2023-03-29T09:12:00.219Z,69.74
2023-03-29T09:14:26.652Z,70.68
2023-03-29T09:16:53.184Z,70.96
2023-03-29T09:19:19.637Z,70.38
2023-03-29T09:21:46.986Z,71.38
2023-03-29T09:24:13.807Z,70.97
2023-03-29T09:26:40.243Z,70.96
2023-03-29T09:29:09.090Z,71.11
2023-03-29T09:31:36.613Z,71.96
2023-03-29T09:34:03.070Z,71.05
2023-03-29T09:36:30.266Z,70.18
2023-03-29T09:38:57.143Z,70.08
2023-03-29T09:41:23.654Z,69.78
2023-03-29T09:43:50.068Z,69.88
2023-03-29T09:46:16.952Z,69.80
2023-03-29T09:48:43.427Z,69.80
2023-03-29T09:51:09.850Z,68.99
2023-03-29T09:53:36.377Z,68.87
2023-03-29T09:56:02.869Z,68.63
2023-03-29T09:58:31.216Z,68.97
2023-03-29T10:00:58.319Z,68.02
2023-03-29T10:03:24.771Z,68.78
2023-03-29T10:05:53.438Z,68.98
2023-03-29T10:08:20.163Z,68.93
2023-03-29T10:10:46.733Z,69.17
2023-03-29T10:13:13.506Z,69.57
2023-03-29T10:15:39.982Z,69.54
2023-03-29T10:18:06.946Z,69.00
2023-03-29T10:20:33.430Z,68.28
2023-03-29T10:22:59.888Z,68.31
2023-03-29T10:25:26.670Z,67.52
2023-03-29T10:27:53.114Z,67.51
2023-03-29T10:30:19.551Z,67.58
2023-03-29T10:32:46.407Z,68.39
2023-03-29T10:35:12.847Z,68.61
2023-03-29T10:37:39.350Z,67.85
2023-03-29T10:40:06.804Z,68.01
2023-03-29T10:42:33.771Z,67.13
2023-03-29T10:45:00.435Z,67.82
2023-03-29T10:47:27.029Z,67.40
2023-03-29T10:49:56.469Z,67.23
2023-03-29T10:52:23.498Z,68.10
2023-03-29T10:54:49.997Z,68.14
2023-03-29T10:57:16.959Z,67.72
2023-03-29T10:59:43.547Z,67.82
2023-03-29T11:02:09.989Z,68.28
2023-03-29T11:04:36.453Z,67.71
2023-03-29T11:07:05.153Z,67.73
2023-03-29T11:09:31.827Z,67.30
2023-03-29T11:12:12.175Z,68.40
2023-03-29T11:14:38.980Z,68.34
2023-03-29T11:17:05.445Z,68.28
2023-03-29T11:19:31.858Z,67.44
2023-03-29T11:21:59.292Z,67.17
2023-03-29T11:24:25.872Z,67.57
2023-03-29T11:26:52.310Z,67.20
2023-03-29T11:29:18.748Z,66.82
2023-03-29T11:31:45.302Z,67.36
2023-03-29T11:34:11.792Z,66.16
2023-03-29T11:36:39.146Z,65.46
2023-03-29T11:39:05.616Z,65.19
2023-03-29T11:41:32.138Z,64.34
2023-03-29T11:43:58.610Z,63.80
2023-03-29T11:46:25.067Z,64.33
2023-03-29T11:48:51.536Z,65.54
2023-03-29T11:51:18.008Z,63.95
2023-03-29T11:53:44.453Z,65.02
2023-03-29T11:56:10.856Z,64.04
2023-03-29T11:58:39.017Z,64.43
2023-03-29T12:01:05.720Z,64.72
2023-03-29T12:03:32.909Z,63.83
2023-03-29T12:05:59.454Z,63.56
2023-03-29T12:08:26.050Z,64.26
2023-03-29T12:10:52.487Z,64.35
2023-03-29T12:13:18.995Z,64.83
2023-03-29T12:15:45.458Z,65.47
2023-03-29T12:18:12.056Z,64.22
2023-03-29T12:20:38.454Z,64.78
2023-03-29T12:23:04.962Z,64.20
2023-03-29T12:25:31.657Z,63.16
2023-03-29T12:27:58.089Z,63.84
2023-03-29T12:30:24.521Z,63.61
2023-03-29T12:32:51.083Z,62.85
2023-03-29T12:35:17.648Z,62.86
2023-03-29T12:37:44.079Z,62.66
2023-03-29T12:40:10.874Z,62.51
2023-03-29T12:42:37.486Z,62.08
2023-03-29T12:45:03.945Z,60.86
2023-03-29T12:47:30.469Z,61.19
2023-03-29T12:49:56.892Z,61.29
2023-03-29T12:52:23.335Z,60.17
2023-03-29T12:54:49.771Z,60.05
2023-03-29T12:57:16.315Z,61.06
2023-03-29T12:59:43.246Z,60.27
2023-03-29T13:02:10.808Z,61.65
2023-03-29T13:04:37.637Z,60.64
2023-03-29T13:07:04.262Z,60.78
2023-03-29T13:09:30.728Z,61.59
2023-03-29T13:11:57.401Z,62.74
2023-03-29T13:14:23.822Z,62.28
2023-03-29T13:16:50.258Z,62.39
2023-03-29T13:19:17.016Z,62.99
2023-03-29T13:21:43.452Z,62.51
2023-03-29T13:24:09.861Z,62.67
2023-03-29T13:26:36.287Z,62.34
2023-03-29T13:29:03.730Z,62.80
2023-03-29T13:31:30.194Z,62.13
2023-03-29T13:33:57.352Z,63.15
2023-03-29T13:36:23.836Z,62.62
2023-03-29T13:38:50.280Z,62.29
2023-03-29T13:41:16.719Z,62.33
2023-03-29T13:43:43.415Z,62.76
2023-03-29T13:46:09.874Z,62.90
2023-03-29T13:48:36.441Z,62.90
2023-03-29T13:51:08.265Z,62.83
2023-03-29T13:53:35.064Z,62.18
2023-03-29T13:56:02.081Z,62.72
2023-03-29T13:58:28.770Z,61.17
2023-03-29T14:00:55.350Z,62.10
2023-03-29T14:03:25.985Z,61.83
2023-03-29T14:05:52.419Z,61.87
2023-03-29T14:08:18.849Z,61.76
2023-03-29T14:10:45.273Z,61.93
2023-03-29T14:13:11.907Z,61.72
2023-03-29T14:15:38.423Z,61.62
2023-03-29T14:18:04.852Z,61.34
2023-03-29T14:20:31.533Z,61.75
2023-03-29T14:22:57.987Z,62.09
2023-03-29T14:25:24.612Z,61.94
2023-03-29T14:27:51.145Z,61.32
2023-03-29T14:30:17.645Z,61.67
2023-03-29T14:32:44.104Z,62.26
2023-03-29T14:35:11.190Z,62.24
2023-03-29T14:37:37.676Z,62.22
2023-03-29T14:40:08.949Z,63.49
2023-03-29T14:42:35.480Z,64.22
2023-03-29T14:45:01.914Z,62.91
2023-03-29T14:47:28.391Z,61.87
2023-03-29T14:49:56.356Z,62.71
2023-03-29T14:52:22.828Z,63.23
2023-03-29T14:54:49.383Z,63.07
2023-03-29T14:57:16.708Z,62.66
2023-03-29T14:59:43.286Z,62.62
2023-03-29T15:02:09.738Z,62.53
2023-03-29T15:04:36.233Z,62.63
2023-03-29T15:07:02.870Z,62.33
2023-03-29T15:09:29.305Z,61.66
2023-03-29T15:11:55.797Z,61.64
2023-03-29T15:14:22.265Z,61.38
2023-03-29T15:16:48.751Z,61.10
2023-03-29T15:19:15.172Z,61.46
2023-03-29T15:21:43.337Z,62.09
2023-03-29T15:24:09.755Z,63.25
2023-03-29T15:26:36.254Z,64.74
2023-03-29T15:29:03.224Z,64.98
2023-03-29T15:31:29.694Z,64.65
2023-03-29T15:33:56.267Z,63.86
2023-03-29T15:36:22.772Z,62.47
2023-03-29T15:38:50.055Z,61.59
2023-03-29T15:41:19.582Z,61.16
2023-03-29T15:43:46.466Z,61.04
2023-03-29T15:46:13.704Z,60.45
2023-03-29T15:48:40.231Z,61.14
2023-03-29T15:51:07.073Z,60.96
2023-03-29T15:53:33.656Z,59.90
2023-03-29T15:56:00.350Z,59.97
2023-03-29T15:58:27.225Z,59.86
2023-03-29T16:00:53.723Z,59.57
2023-03-29T16:03:22.478Z,59.81
2023-03-29T16:05:49.028Z,59.99
2023-03-29T16:08:15.547Z,59.48
2023-03-29T16:10:42.090Z,59.63
2023-03-29T16:13:08.528Z,59.73
2023-03-29T16:15:36.257Z,59.56
2023-03-29T16:18:02.788Z,59.95
2023-03-29T16:20:29.312Z,60.59
2023-03-29T16:22:55.782Z,61.56
2023-03-29T16:25:25.539Z,61.74
2023-03-29T16:27:52.779Z,62.94
2023-03-29T16:30:19.315Z,63.55
2023-03-29T16:32:46.067Z,64.16
2023-03-29T16:35:12.609Z,63.78
2023-03-29T16:37:39.027Z,63.61
2023-03-29T16:40:08.001Z,63.80
2023-03-29T16:42:34.450Z,63.99
2023-03-29T16:45:02.438Z,63.59
2023-03-29T16:47:28.869Z,63.79
2023-03-29T16:49:55.361Z,64.43
2023-03-29T16:52:23.399Z,64.76
2023-03-29T16:54:49.862Z,65.36
2023-03-29T16:57:16.388Z,65.08
2023-03-29T16:59:45.233Z,65.08
2023-03-29T17:02:11.922Z,65.31
2023-03-29T17:04:38.773Z,65.49
2023-03-29T17:07:05.474Z,65.31
2023-03-29T17:09:32.345Z,65.98
2023-03-29T17:11:58.926Z,66.28
2023-03-29T17:14:26.624Z,67.07
2023-03-29T17:16:53.067Z,66.87
2023-03-29T17:19:19.528Z,67.21
2023-03-29T17:21:46.156Z,67.04
2023-03-29T17:24:12.604Z,67.03
2023-03-29T17:26:39.070Z,67.54
2023-03-29T17:29:05.649Z,67.64
2023-03-29T17:31:32.687Z,67.46
2023-03-29T17:33:59.246Z,67.43
2023-03-29T17:36:28.353Z,67.43
2023-03-29T17:38:54.955Z,67.82
2023-03-29T17:41:21.611Z,68.02
2023-03-29T17:43:48.245Z,69.21
2023-03-29T17:46:16.691Z,69.10
2023-03-29T17:48:43.166Z,69.04
2023-03-29T17:51:09.580Z,69.03
2023-03-29T17:53:36.351Z,68.64
2023-03-29T17:56:02.928Z,68.92
2023-03-29T17:58:29.569Z,69.01
2023-03-29T18:00:56.441Z,69.97
2023-03-29T18:03:23.062Z,69.83
2023-03-29T18:05:49.592Z,70.07
2023-03-29T18:08:16.910Z,69.65
2023-03-29T18:10:43.457Z,70.04
2023-03-29T18:13:14.034Z,69.70
2023-03-29T18:15:40.616Z,69.65
2023-03-29T18:18:07.177Z,70.01
2023-03-29T18:20:33.651Z,69.99
2023-03-29T18:23:00.083Z,69.96
2023-03-29T18:25:26.615Z,69.47
2023-03-29T18:27:54.507Z,69.66
2023-03-29T18:30:20.923Z,69.99
2023-03-29T18:32:47.411Z,70.38
2023-03-29T18:35:13.904Z,70.58
2023-03-29T18:37:40.615Z,71.02
2023-03-29T18:40:08.390Z,70.68
2023-03-29T18:42:34.851Z,71.10
2023-03-29T18:45:01.262Z,71.08
2023-03-29T18:47:27.865Z,71.00
2023-03-29T18:49:54.409Z,71.72
2023-03-29T18:52:21.186Z,71.78
2023-03-29T18:54:47.769Z,71.71
2023-03-29T18:57:14.234Z,71.54
2023-03-29T18:59:41.021Z,71.33
2023-03-29T19:02:07.585Z,71.28
2023-03-29T19:04:34.949Z,71.26
2023-03-29T19:07:02.045Z,71.29
2023-03-29T19:09:28.485Z,71.21
2023-03-29T19:11:54.910Z,71.50
2023-03-29T19:14:24.300Z,71.99
2023-03-29T19:16:51.083Z,71.98
2023-03-29T19:19:18.740Z,72.23
2023-03-29T19:21:47.189Z,72.66
2023-03-29T19:24:13.656Z,72.78
2023-03-29T19:26:40.121Z,72.26
2023-03-29T19:29:06.630Z,72.03
2023-03-29T19:31:33.694Z,72.10
2023-03-29T19:34:00.154Z,72.27
2023-03-29T19:36:26.647Z,72.29
2023-03-29T19:38:54.290Z,72.38
2023-03-29T19:41:21.111Z,73.32
2023-03-29T19:43:47.546Z,73.28
2023-03-29T19:46:15.907Z,73.30
2023-03-29T19:48:42.421Z,73.54
2023-03-29T19:51:09.033Z,73.78
2023-03-29T19:53:38.503Z,73.63
2023-03-29T19:56:06.579Z,73.71
2023-03-29T19:58:33.007Z,73.79
2023-03-29T20:00:59.463Z,73.81
2023-03-29T20:03:28.480Z,73.99
2023-03-29T20:05:55.733Z,73.78
2023-03-29T20:08:22.191Z,74.13
2023-03-29T20:10:48.850Z,74.69
2023-03-29T20:13:21.855Z,74.42
2023-03-29T20:15:54.450Z,74.82
2023-03-29T20:18:20.963Z,74.17
2023-03-29T20:20:47.401Z,74.07
2023-03-29T20:23:15.629Z,74.06
2023-03-29T20:25:42.138Z,74.03
2023-03-29T20:28:08.741Z,74.08
2023-03-29T20:30:36.374Z,74.11
2023-03-29T20:33:02.827Z,74.06
2023-03-29T20:35:29.284Z,74.36
2023-03-29T20:37:55.786Z,74.20
2023-03-29T20:40:22.946Z,73.86
2023-03-29T20:42:49.417Z,73.86
2023-03-29T20:45:19.087Z,74.10
2023-03-29T20:47:50.617Z,74.19
2023-03-29T20:50:18.932Z,73.93
2023-03-29T20:52:45.510Z,74.09
2023-03-29T20:55:22.540Z,73.78
2023-03-29T20:57:48.999Z,74.02
2023-03-29T21:00:16.148Z,74.00
2023-03-29T21:02:42.652Z,74.35
2023-03-29T21:05:09.895Z,74.34
2023-03-29T21:07:36.615Z,74.11
2023-03-29T21:10:03.032Z,74.08
2023-03-29T21:12:29.548Z,73.94
2023-03-29T21:14:55.981Z,73.67
2023-03-29T21:17:22.399Z,73.99
2023-03-29T21:19:48.900Z,74.16
2023-03-29T21:22:15.348Z,74.14
2023-03-29T21:24:41.803Z,74.71
2023-03-29T21:27:08.214Z,74.43
2023-03-29T21:29:34.695Z,74.77
2023-03-29T21:32:01.169Z,74.70
2023-03-29T21:34:27.666Z,74.49
2023-03-29T21:36:54.091Z,74.47
2023-03-29T21:39:20.494Z,74.50
2023-03-29T21:41:46.964Z,73.90
2023-03-29T21:44:13.427Z,74.40
2023-03-29T21:46:39.967Z,74.41
2023-03-29T21:49:06.403Z,74.86
2023-03-29T21:51:32.985Z,74.73
2023-03-29T21:53:59.386Z,74.47
2023-03-29T21:56:26.543Z,74.67
2023-03-29T21:58:53.001Z,74.31
2023-03-29T22:01:19.449Z,75.17
2023-03-29T22:03:46.558Z,75.30
2023-03-29T22:06:12.997Z,75.12
2023-03-29T22:08:40.749Z,75.05
2023-03-29T22:11:08.160Z,75.31
2023-03-29T22:13:34.826Z,75.53
2023-03-29T22:16:01.350Z,75.22
2023-03-29T22:18:28.174Z,75.13
2023-03-29T22:20:54.632Z,75.38
2023-03-29T22:23:21.070Z,75.64
2023-03-29T22:25:47.502Z,75.82
2023-03-29T22:28:13.914Z,75.42
2023-03-29T22:30:40.937Z,75.48
2023-03-29T22:33:07.375Z,75.75
2023-03-29T22:35:33.916Z,75.68
2023-03-29T22:38:00.339Z,75.66
2023-03-29T22:40:26.819Z,76.02
2023-03-29T22:42:53.279Z,76.31
2023-03-29T22:45:20.877Z,76.06
2023-03-29T22:47:47.393Z,75.72
2023-03-29T22:50:13.928Z,75.79
2023-03-29T22:52:40.602Z,76.08
2023-03-29T22:55:07.175Z,76.17
2023-03-29T22:57:33.693Z,76.06
2023-03-29T23:00:00.884Z,76.62
2023-03-29T23:02:27.342Z,76.27
2023-03-29T23:04:53.911Z,76.22
2023-03-29T23:07:20.339Z,76.22
2023-03-29T23:09:46.771Z,76.33
2023-03-29T23:12:13.233Z,76.45
2023-03-29T23:14:42.766Z,76.10
2023-03-29T23:17:10.451Z,76.10
2023-03-29T23:19:36.966Z,76.51
2023-03-29T23:22:03.421Z,76.09
2023-03-29T23:24:30.579Z,75.94
2023-03-29T23:26:57.749Z,76.42
2023-03-29T23:29:26.499Z,76.21
2023-03-29T23:31:54.043Z,76.31
2023-03-29T23:34:20.522Z,76.15
2023-03-29T23:36:47.020Z,76.23
2023-03-29T23:39:14.464Z,76.73
2023-03-29T23:41:41.224Z,76.65
2023-03-29T23:44:07.970Z,76.11
2023-03-29T23:46:34.817Z,76.37
2023-03-29T23:49:01.322Z,76.22
2023-03-29T23:51:28.543Z,75.79
2023-03-29T23:53:55.004Z,75.92
2023-03-29T23:56:24.624Z,76.41
2023-03-29T23:58:51.268Z,76.60
